Time;durP1;ratioP1;P1;durP2;ratioP2;P2;SDS_P1;SDS_P2;PMS_P1;PMS_P2;Temp;Humidity;BMP_temperature;BMP_pressure;BME280_temperature;BME280_humidity;BME280_pressure;Samples;Min_cycle;Max_cycle;Signal;HPM_P1;HPM_P2
2023/08/05 00:00:02;;;;;;;10.35;6.00;;;17.40;99.90;;;;;;5093201;28;20107;-71
2023/08/05 00:02:28;;;;;;;5.72;4.85;;;17.40;99.90;;;;;;5102177;28;20031;-71
2023/08/05 00:04:54;;;;;;;11.65;6.10;;;17.30;99.90;;;;;;5114051;28;20115;-71
2023/08/05 00:07:19;;;;;;;8.85;7.13;;;17.40;99.90;;;;;;5112777;28;20055;-71
2023/08/05 00:09:45;;;;;;;12.93;6.95;;;17.30;99.90;;;;;;5113870;28;20083;-70
2023/08/05 00:12:11;;;;;;;8.05;6.47;;;17.30;99.90;;;;;;5093291;28;20081;-70
2023/08/05 00:14:37;;;;;;;8.98;6.70;;;17.30;99.90;;;;;;5093435;28;20476;-70
2023/08/05 00:17:03;;;;;;;12.15;7.28;;;17.30;99.90;;;;;;5113786;28;20483;-70
2023/08/05 00:19:29;;;;;;;9.77;7.05;;;17.30;99.90;;;;;;5112431;28;20512;-71
2023/08/05 00:21:55;;;;;;;11.05;7.40;;;17.30;99.90;;;;;;5095471;28;20125;-71
2023/08/05 00:24:21;;;;;;;13.35;6.80;;;17.30;99.90;;;;;;5093151;28;20130;-70
2023/08/05 00:26:46;;;;;;;9.38;7.07;;;17.20;99.90;;;;;;5093228;28;20142;-71
2023/08/05 00:29:12;;;;;;;8.00;7.22;;;17.20;99.90;;;;;;5092372;28;20496;-70
2023/08/05 00:31:38;;;;;;;7.68;6.47;;;17.20;99.90;;;;;;5093311;28;20024;-71
2023/08/05 00:34:04;;;;;;;6.55;5.88;;;17.20;99.90;;;;;;5092519;28;20361;-70
2023/08/05 00:36:29;;;;;;;7.03;6.15;;;17.30;99.90;;;;;;5092788;28;20473;-70
2023/08/05 00:38:55;;;;;;;7.75;6.47;;;17.30;99.90;;;;;;5092739;28;20032;-71
2023/08/05 00:41:21;;;;;;;9.15;7.13;;;17.30;99.90;;;;;;5092832;28;20032;-70
2023/08/05 00:43:46;;;;;;;10.95;7.10;;;17.30;99.90;;;;;;5092632;28;20040;-71
2023/08/05 00:46:13;;;;;;;7.85;6.72;;;17.30;99.90;;;;;;5092562;28;20027;-70
2023/08/05 00:48:40;;;;;;;7.90;6.85;;;17.20;99.90;;;;;;5092910;28;20028;-71
2023/08/05 00:51:07;;;;;;;10.02;6.80;;;17.20;99.90;;;;;;5092577;28;20028;-70
2023/08/05 00:53:35;;;;;;;8.85;7.43;;;17.20;99.90;;;;;;5092633;28;20055;-71
2023/08/05 00:56:02;;;;;;;8.27;7.20;;;17.20;99.90;;;;;;5092547;28;20070;-71
2023/08/05 00:58:31;;;;;;;12.32;8.18;;;17.30;99.90;;;;;;5092811;28;20028;-70
2023/08/05 01:00:56;;;;;;;9.18;7.80;;;17.20;99.90;;;;;;5096902;28;20413;-71
2023/08/05 01:03:22;;;;;;;9.73;8.35;;;17.30;99.90;;;;;;5112907;28;20551;-70
2023/08/05 01:05:50;;;;;;;9.98;8.35;;;17.30;99.90;;;;;;5106715;28;20365;-71
2023/08/05 01:08:17;;;;;;;12.05;7.50;;;17.30;99.90;;;;;;5091926;28;20122;-71
2023/08/05 01:10:43;;;;;;;10.35;8.55;;;17.30;99.90;;;;;;5092671;28;20453;-71
2023/08/05 01:13:09;;;;;;;14.75;8.98;;;17.30;99.90;;;;;;5092408;28;20408;-70
2023/08/05 01:15:35;;;;;;;15.35;8.95;;;17.30;99.90;;;;;;5100031;28;20026;-71
2023/08/05 01:18:03;;;;;;;12.20;7.88;;;17.30;99.90;;;;;;5112987;28;20641;-71
2023/08/05 01:20:44;;;;;;;12.77;8.52;;;17.20;99.90;;;;;;5106266;28;20020;-71
2023/08/05 01:23:40;;;;;;;13.63;10.05;;;17.20;99.90;;;;;;5092053;28;20093;-71
2023/08/05 01:26:08;;;;;;;12.77;8.73;;;17.30;99.90;;;;;;5088235;28;20054;-71
2023/08/05 01:28:36;;;;;;;11.85;8.98;;;17.30;99.90;;;;;;5092072;28;20036;-72
2023/08/05 01:31:04;;;;;;;11.20;9.50;;;17.20;99.90;;;;;;5092203;28;20027;-72
2023/08/05 01:33:31;;;;;;;11.15;8.55;;;17.20;99.90;;;;;;5092421;28;20016;-71
2023/08/05 01:35:57;;;;;;;13.23;9.20;;;17.30;99.90;;;;;;5092359;28;20047;-71
2023/08/05 01:38:23;;;;;;;14.13;9.73;;;17.20;99.90;;;;;;5092135;28;20051;-71
2023/08/05 01:40:48;;;;;;;14.25;10.55;;;17.20;99.90;;;;;;5092168;28;20058;-71
2023/08/05 01:43:14;;;;;;;13.73;10.45;;;17.20;99.90;;;;;;5092103;28;20079;-72
2023/08/05 01:45:40;;;;;;;11.30;9.07;;;17.20;99.90;;;;;;5090844;28;20058;-71
2023/08/05 01:48:05;;;;;;;11.40;9.30;;;17.20;99.90;;;;;;5092233;28;20380;-71
2023/08/05 01:50:31;;;;;;;9.45;8.40;;;17.20;99.90;;;;;;5096420;28;20020;-71
2023/08/05 01:52:57;;;;;;;10.82;9.40;;;17.20;99.90;;;;;;5101163;28;20035;-70
2023/08/05 01:55:22;;;;;;;13.77;9.35;;;17.20;99.90;;;;;;5090337;28;20469;-70
2023/08/05 01:57:48;;;;;;;12.68;10.05;;;17.20;99.90;;;;;;5092070;28;20020;-72
2023/08/05 02:00:14;;;;;;;11.80;9.80;;;17.10;99.90;;;;;;5090084;28;20480;-69
2023/08/05 02:02:40;;;;;;;15.82;9.40;;;17.10;99.90;;;;;;5101892;28;20153;-70
2023/08/05 02:05:06;;;;;;;11.52;9.63;;;17.10;99.90;;;;;;5112336;28;20102;-70
2023/08/05 02:07:34;;;;;;;14.57;9.95;;;17.00;99.90;;;;;;5112399;28;20036;-69
2023/08/05 02:10:00;;;;;;;14.15;9.77;;;17.00;99.90;;;;;;5112049;28;20157;-70
2023/08/05 02:12:26;;;;;;;15.43;10.30;;;17.00;99.90;;;;;;5111710;28;20531;-70
2023/08/05 02:14:51;;;;;;;15.77;10.88;;;17.00;99.90;;;;;;5112316;28;20407;-70
2023/08/05 02:17:17;;;;;;;13.43;9.57;;;17.00;99.90;;;;;;5112134;28;20089;-71
2023/08/05 02:19:43;;;;;;;13.27;9.70;;;16.90;99.90;;;;;;5113962;28;20020;-70
2023/08/05 02:22:09;;;;;;;15.18;10.98;;;16.90;99.90;;;;;;5116422;28;20111;-70
2023/08/05 02:24:34;;;;;;;13.63;10.07;;;16.90;99.90;;;;;;5115933;28;20483;-70
2023/08/05 02:27:00;;;;;;;19.42;9.88;;;16.90;99.90;;;;;;5116085;28;20404;-70
2023/08/05 02:29:26;;;;;;;12.82;10.68;;;16.90;99.90;;;;;;5115822;27;20022;-70
2023/08/05 02:31:51;;;;;;;13.55;10.30;;;16.90;99.90;;;;;;5114857;28;20559;-70
2023/08/05 02:34:17;;;;;;;12.40;11.10;;;16.90;99.90;;;;;;5115916;28;20055;-70
2023/08/05 02:36:43;;;;;;;16.45;11.18;;;16.80;99.90;;;;;;5115974;28;20472;-70
2023/08/05 02:39:08;;;;;;;21.85;10.15;;;16.80;99.90;;;;;;5115239;28;20050;-70
2023/08/05 02:41:34;;;;;;;14.85;10.57;;;16.70;99.90;;;;;;5115717;28;20055;-70
2023/08/05 02:44:00;;;;;;;15.55;9.88;;;16.60;99.90;;;;;;5115905;28;20107;-71
2023/08/05 02:46:25;;;;;;;16.40;9.98;;;16.60;99.90;;;;;;5114543;28;20027;-70
2023/08/05 02:48:51;;;;;;;13.55;10.60;;;16.60;99.90;;;;;;5115879;28;20425;-70
2023/08/05 02:51:17;;;;;;;12.13;9.23;;;16.60;99.90;;;;;;5115685;28;20501;-70
2023/08/05 02:53:42;;;;;;;15.07;8.80;;;16.50;99.90;;;;;;5115364;28;20028;-70
2023/08/05 02:56:08;;;;;;;14.52;9.80;;;16.60;99.90;;;;;;5114323;28;20016;-71
2023/08/05 02:58:34;;;;;;;11.68;9.48;;;16.60;99.90;;;;;;5115239;27;20387;-71
2023/08/05 03:01:08;;;;;;;15.48;8.77;;;16.60;99.90;;;;;;5115653;28;20030;-71
2023/08/05 03:03:37;;;;;;;13.25;9.10;;;16.60;99.90;;;;;;5115300;28;20035;-71
2023/08/05 03:06:03;;;;;;;14.68;10.20;;;16.60;99.90;;;;;;5115602;28;20499;-71
2023/08/05 03:08:29;;;;;;;11.80;9.93;;;16.60;99.90;;;;;;5115109;28;20028;-71
2023/08/05 03:10:59;;;;;;;13.40;10.20;;;16.60;99.90;;;;;;5115215;28;20452;-70
2023/08/05 03:13:25;;;;;;;11.20;9.27;;;16.60;99.90;;;;;;5115118;28;20074;-70
2023/08/05 03:15:52;;;;;;;14.50;8.95;;;16.60;99.90;;;;;;5115447;28;20024;-70
2023/08/05 03:18:18;;;;;;;15.88;9.15;;;16.60;99.90;;;;;;5113811;28;20027;-70
2023/08/05 03:20:44;;;;;;;13.32;9.10;;;16.60;99.90;;;;;;5113986;28;20112;-70
2023/08/05 03:23:10;;;;;;;15.25;10.00;;;16.60;99.90;;;;;;5114820;28;20058;-70
2023/08/05 03:25:37;;;;;;;13.75;10.10;;;16.50;99.90;;;;;;5115075;27;20020;-70
2023/08/05 03:28:03;;;;;;;11.10;8.75;;;16.50;99.90;;;;;;5114953;28;20027;-70
2023/08/05 03:30:28;;;;;;;12.10;8.60;;;16.50;99.90;;;;;;5113474;28;20088;-70
2023/08/05 03:32:54;;;;;;;12.40;9.10;;;16.40;99.90;;;;;;5114887;28;20464;-70
2023/08/05 03:35:20;;;;;;;11.45;9.00;;;16.50;99.90;;;;;;5114651;28;20407;-70
2023/08/05 03:37:46;;;;;;;14.18;9.40;;;16.50;99.90;;;;;;5114875;28;20023;-70
2023/08/05 03:40:13;;;;;;;11.48;9.30;;;16.50;99.90;;;;;;5114902;28;20031;-70
2023/08/05 03:42:39;;;;;;;12.82;9.50;;;16.40;99.90;;;;;;5114598;28;20027;-70
2023/08/05 03:45:06;;;;;;;12.88;9.70;;;16.40;99.90;;;;;;5114913;28;20034;-70
2023/08/05 03:47:33;;;;;;;12.55;9.27;;;16.40;99.90;;;;;;5114469;28;20031;-70
2023/08/05 03:49:59;;;;;;;15.20;9.57;;;16.30;99.90;;;;;;5114372;28;20023;-70
2023/08/05 03:52:26;;;;;;;12.48;9.45;;;16.30;99.90;;;;;;5114520;28;20053;-70
2023/08/05 03:54:52;;;;;;;10.65;8.75;;;16.30;99.90;;;;;;5114642;28;20106;-70
2023/08/05 03:57:18;;;;;;;14.88;9.32;;;16.30;99.90;;;;;;5114611;28;20541;-69
2023/08/05 03:59:45;;;;;;;11.10;7.88;;;16.20;99.90;;;;;;5114085;28;20036;-70
2023/08/05 04:02:11;;;;;;;12.45;8.48;;;16.20;99.90;;;;;;5114037;28;20433;-70
2023/08/05 04:04:37;;;;;;;14.02;8.82;;;16.30;99.90;;;;;;5113524;28;20097;-70
2023/08/05 04:07:03;;;;;;;14.23;8.27;;;16.30;99.90;;;;;;5114115;28;20055;-71
2023/08/05 04:09:28;;;;;;;9.45;8.45;;;16.30;99.90;;;;;;5114038;28;20055;-70
2023/08/05 04:11:55;;;;;;;14.75;9.80;;;16.30;99.90;;;;;;5114352;28;20039;-70
2023/08/05 04:14:23;;;;;;;13.70;8.82;;;16.20;99.90;;;;;;5113971;28;20039;-70
2023/08/05 04:16:48;;;;;;;14.68;9.30;;;16.20;99.90;;;;;;5113939;28;20074;-70
2023/08/05 04:19:18;;;;;;;13.10;8.65;;;16.20;99.90;;;;;;5113404;28;20492;-70
2023/08/05 04:21:47;;;;;;;10.18;9.23;;;16.20;99.90;;;;;;5112786;28;20055;-69
2023/08/05 04:24:19;;;;;;;12.88;9.93;;;16.20;99.90;;;;;;5104528;28;20032;-70
2023/08/05 04:26:45;;;;;;;13.07;9.20;;;16.20;99.90;;;;;;5091805;28;20020;-70
2023/08/05 04:29:10;;;;;;;14.35;9.82;;;16.20;99.90;;;;;;5093096;28;20085;-70
2023/08/05 04:31:38;;;;;;;13.63;9.27;;;16.20;99.90;;;;;;5106135;28;20024;-70
2023/08/05 04:34:04;;;;;;;18.17;11.10;;;16.20;99.90;;;;;;5092939;28;20027;-70
2023/08/05 04:36:30;;;;;;;13.70;10.13;;;16.20;99.90;;;;;;5104154;28;20461;-69
2023/08/05 04:38:58;;;;;;;16.85;9.52;;;16.10;99.90;;;;;;5092974;28;20020;-71
2023/08/05 04:41:23;;;;;;;16.13;9.73;;;16.10;99.90;;;;;;5097465;28;20116;-70
2023/08/05 04:43:49;;;;;;;12.13;8.90;;;16.00;99.90;;;;;;5098257;28;20450;-71
2023/08/05 04:46:15;;;;;;;12.02;8.95;;;16.00;99.90;;;;;;5092846;28;20036;-70
2023/08/05 04:48:41;;;;;;;11.25;8.60;;;16.10;99.90;;;;;;5091483;28;20477;-70
2023/08/05 04:51:06;;;;;;;12.95;7.75;;;16.10;99.90;;;;;;5093118;28;20035;-69
2023/08/05 04:53:32;;;;;;;15.30;8.48;;;16.10;99.90;;;;;;5091756;28;20544;-70
2023/08/05 04:55:58;;;;;;;15.55;8.15;;;16.10;99.90;;;;;;5092919;28;20735;-70
2023/08/05 04:58:23;;;;;;;18.08;11.32;;;16.20;99.90;;;;;;5091512;28;20094;-70
2023/08/05 05:00:49;;;;;;;19.98;11.48;;;16.20;99.90;;;;;;5092250;28;20107;-70
2023/08/05 05:03:14;;;;;;;20.13;12.70;;;16.20;99.90;;;;;;5106320;28;20084;-70
2023/08/05 05:05:43;;;;;;;18.92;12.70;;;16.20;99.90;;;;;;5112632;28;20027;-70
2023/08/05 05:08:09;;;;;;;20.58;13.68;;;16.20;99.90;;;;;;5112049;28;20433;-70
2023/08/05 05:10:35;;;;;;;20.00;13.52;;;16.10;99.90;;;;;;5111702;28;20115;-71
2023/08/05 05:13:00;;;;;;;21.92;13.60;;;16.20;99.90;;;;;;5113116;28;20111;-70
2023/08/05 05:15:26;;;;;;;22.23;14.68;;;16.20;99.90;;;;;;5112888;28;20076;-70
2023/08/05 05:17:52;;;;;;;18.92;13.98;;;16.20;99.90;;;;;;5112714;28;20027;-70
2023/08/05 05:20:17;;;;;;;18.17;13.60;;;16.20;99.90;;;;;;5112598;28;20024;-70
2023/08/05 05:22:43;;;;;;;21.77;13.85;;;16.30;99.90;;;;;;5111262;28;20047;-70
2023/08/05 05:25:09;;;;;;;19.73;15.05;;;16.30;99.90;;;;;;5111324;28;20028;-70
2023/08/05 05:27:35;;;;;;;19.77;14.05;;;16.30;99.90;;;;;;5112855;27;20051;-70
2023/08/05 05:30:01;;;;;;;25.20;15.80;;;16.30;99.90;;;;;;5112615;28;20438;-70
2023/08/05 05:32:27;;;;;;;23.23;13.82;;;16.30;99.90;;;;;;5110397;28;20031;-70
2023/08/05 05:34:52;;;;;;;20.90;13.88;;;16.40;99.90;;;;;;5111729;28;20026;-70
2023/08/05 05:37:18;;;;;;;22.27;14.85;;;16.40;99.90;;;;;;5112395;28;20081;-70
2023/08/05 05:39:44;;;;;;;27.65;15.65;;;16.30;99.90;;;;;;5112133;28;20053;-70
2023/08/05 05:42:10;;;;;;;24.98;16.48;;;16.30;99.90;;;;;;5111104;28;20019;-71
2023/08/05 05:44:38;;;;;;;25.50;17.10;;;16.30;99.90;;;;;;5112139;28;20035;-70
2023/08/05 05:47:07;;;;;;;25.15;15.75;;;16.30;99.90;;;;;;5112052;28;20024;-70
2023/08/05 05:49:34;;;;;;;22.40;15.43;;;16.40;99.90;;;;;;5112230;28;20031;-70
2023/08/05 05:51:59;;;;;;;23.25;14.90;;;16.40;99.90;;;;;;5112544;28;20020;-69
2023/08/05 05:54:25;;;;;;;22.23;16.02;;;16.30;99.90;;;;;;5109340;28;20447;-70
2023/08/05 05:56:51;;;;;;;20.95;14.73;;;16.30;99.90;;;;;;5106247;28;20409;-70
2023/08/05 05:59:17;;;;;;;24.02;16.42;;;16.40;99.90;;;;;;5095909;28;20024;-69
2023/08/05 06:01:42;;;;;;;26.65;17.35;;;16.40;99.90;;;;;;5097927;28;20407;-69
2023/08/05 06:04:09;;;;;;;27.70;15.70;;;16.50;99.90;;;;;;5116344;28;20041;-68
2023/08/05 06:06:35;;;;;;;21.70;14.55;;;16.50;99.90;;;;;;5115657;28;20030;-69
2023/08/05 06:09:03;;;;;;;23.65;14.40;;;16.60;99.90;;;;;;5116084;28;20047;-70
2023/08/05 06:11:32;;;;;;;25.33;14.63;;;16.70;99.90;;;;;;5113513;28;20039;-72
2023/08/05 06:13:58;;;;;;;25.58;16.17;;;16.70;99.90;;;;;;5096077;28;20020;-70
2023/08/05 06:16:23;;;;;;;22.00;14.68;;;16.60;99.90;;;;;;5107038;28;20031;-73
2023/08/05 06:18:49;;;;;;;22.40;14.23;;;16.70;99.90;;;;;;5116180;28;20028;-72
2023/08/05 06:21:14;;;;;;;20.70;14.23;;;16.80;99.90;;;;;;5116101;28;20100;-71
2023/08/05 06:23:40;;;;;;;24.10;15.90;;;16.70;99.90;;;;;;5112662;27;20425;-72
2023/08/05 06:26:06;;;;;;;23.80;16.45;;;16.70;99.90;;;;;;5096726;28;20110;-70
2023/08/05 06:28:32;;;;;;;19.67;14.73;;;16.80;99.90;;;;;;5115841;28;20023;-72
2023/08/05 06:30:57;;;;;;;25.30;15.80;;;16.90;99.90;;;;;;5112307;28;20035;-71
2023/08/05 06:33:23;;;;;;;21.27;14.90;;;16.90;99.90;;;;;;5114781;28;20024;-72
2023/08/05 06:35:49;;;;;;;23.90;15.30;;;17.00;99.90;;;;;;5108376;28;20027;-71
2023/08/05 06:38:14;;;;;;;22.33;15.63;;;17.10;99.90;;;;;;5115162;28;20027;-73
2023/08/05 06:40:41;;;;;;;18.08;14.18;;;17.00;99.90;;;;;;5116057;28;20024;-74
2023/08/05 06:43:07;;;;;;;26.60;15.55;;;17.10;99.90;;;;;;5115835;28;20028;-73
2023/08/05 06:45:32;;;;;;;22.38;13.80;;;17.10;99.90;;;;;;5097310;27;20027;-71
2023/08/05 06:47:58;;;;;;;24.42;15.98;;;17.20;99.90;;;;;;5093952;28;20428;-72
2023/08/05 06:50:24;;;;;;;20.33;14.05;;;17.20;99.90;;;;;;5095201;28;20499;-72
2023/08/05 06:52:50;;;;;;;25.25;13.57;;;17.30;99.90;;;;;;5097627;28;20097;-72
2023/08/05 06:55:18;;;;;;;20.23;13.75;;;17.30;99.90;;;;;;5099674;28;20020;-71
2023/08/05 06:57:48;;;;;;;20.40;13.82;;;17.40;99.90;;;;;;5093384;28;20028;-72
2023/08/05 07:00:16;;;;;;;19.38;14.07;;;17.50;99.90;;;;;;5105392;28;20020;-73
2023/08/05 07:02:43;;;;;;;18.25;12.82;;;17.60;99.90;;;;;;5108490;28;20052;-73
2023/08/05 07:05:09;;;;;;;17.55;12.50;;;17.50;99.90;;;;;;5097220;28;20040;-72
2023/08/05 07:07:35;;;;;;;16.30;12.52;;;17.40;99.90;;;;;;5104923;27;20094;-71
2023/08/05 07:10:03;;;;;;;18.98;12.93;;;17.50;99.90;;;;;;5112579;28;20127;-72
2023/08/05 07:12:29;;;;;;;17.48;12.32;;;17.60;99.90;;;;;;5102101;28;20020;-72
2023/08/05 07:14:55;;;;;;;20.25;11.95;;;17.60;99.90;;;;;;5099457;28;20030;-72
2023/08/05 07:17:22;;;;;;;19.85;12.63;;;17.60;99.90;;;;;;5105837;28;20047;-73
2023/08/05 07:19:48;;;;;;;17.42;11.30;;;17.60;99.90;;;;;;5111272;28;20011;-72
2023/08/05 07:22:14;;;;;;;19.58;12.50;;;17.50;99.90;;;;;;5113947;28;20051;-73
2023/08/05 07:24:39;;;;;;;15.63;10.95;;;17.60;99.90;;;;;;5114723;28;20036;-71
2023/08/05 07:27:05;;;;;;;16.42;10.93;;;17.70;99.90;;;;;;5114815;28;20031;-70
2023/08/05 07:29:31;;;;;;;16.08;10.32;;;17.70;99.90;;;;;;5114092;28;20087;-71
2023/08/05 07:31:57;;;;;;;18.98;11.63;;;17.80;99.90;;;;;;5114662;28;20027;-73
2023/08/05 07:34:23;;;;;;;16.90;12.05;;;17.80;99.90;;;;;;5114792;28;20024;-72
2023/08/05 07:36:49;;;;;;;17.60;11.10;;;17.90;99.90;;;;;;5114592;28;20028;-72
2023/08/05 07:39:15;;;;;;;16.25;10.80;;;18.00;99.90;;;;;;5113954;28;20079;-71
2023/08/05 07:41:41;;;;;;;12.13;10.32;;;18.00;99.90;;;;;;5114602;28;20023;-72
2023/08/05 07:44:08;;;;;;;12.25;8.68;;;18.00;99.90;;;;;;5113278;28;20357;-72
2023/08/05 07:46:36;;;;;;;12.40;7.75;;;18.00;99.90;;;;;;5114785;28;20024;-72
2023/08/05 07:49:03;;;;;;;10.23;7.88;;;18.30;99.90;;;;;;5112439;28;20032;-72
2023/08/05 07:51:30;;;;;;;7.72;7.00;;;18.40;99.90;;;;;;5114578;28;20076;-73
2023/08/05 07:53:57;;;;;;;8.18;6.03;;;18.60;99.90;;;;;;5114236;28;20387;-73
2023/08/05 07:56:23;;;;;;;9.07;6.38;;;18.70;99.90;;;;;;5114299;27;20073;-73
2023/08/05 07:58:49;;;;;;;8.93;6.00;;;18.70;99.90;;;;;;5113985;28;20403;-72
2023/08/05 08:01:22;;;;;;;9.68;6.95;;;18.90;99.90;;;;;;5114035;28;20023;-73
2023/08/05 08:03:53;;;;;;;8.15;5.50;;;18.80;99.90;;;;;;5113589;28;20122;-73
2023/08/05 08:06:19;;;;;;;8.10;5.85;;;18.80;99.90;;;;;;5114441;28;20023;-71
2023/08/05 08:08:46;;;;;;;7.30;5.68;;;18.70;99.90;;;;;;5113743;28;20039;-72
2023/08/05 08:11:12;;;;;;;5.78;4.78;;;18.80;99.90;;;;;;5113412;28;20024;-72
2023/08/05 08:13:39;;;;;;;6.88;4.82;;;18.90;99.90;;;;;;5112479;28;20538;-72
2023/08/05 08:16:05;;;;;;;5.10;4.57;;;19.00;99.90;;;;;;5112677;28;20072;-71
2023/08/05 08:18:31;;;;;;;8.95;4.82;;;19.10;99.90;;;;;;5113273;28;20444;-72
2023/08/05 08:20:57;;;;;;;4.80;3.90;;;19.20;99.90;;;;;;5113887;28;20031;-71
2023/08/05 08:23:23;;;;;;;6.78;4.60;;;19.20;99.90;;;;;;5113397;28;20089;-72
2023/08/05 08:25:49;;;;;;;8.50;3.88;;;19.20;99.90;;;;;;5113631;28;20030;-72
2023/08/05 08:28:14;;;;;;;5.38;3.75;;;19.30;99.90;;;;;;5113509;28;20035;-71
2023/08/05 08:30:51;;;;;;;4.93;3.75;;;19.30;99.90;;;;;;5111932;28;20024;-73
2023/08/05 08:33:17;;;;;;;9.38;3.95;;;19.40;99.90;;;;;;5113151;28;20038;-72
2023/08/05 08:35:42;;;;;;;5.07;3.80;;;19.50;99.90;;;;;;5113583;28;20476;-72
2023/08/05 08:38:08;;;;;;;5.53;3.83;;;19.60;99.90;;;;;;5112352;28;20383;-72
2023/08/05 08:40:35;;;;;;;5.30;3.20;;;19.80;99.90;;;;;;5113357;28;20476;-72
2023/08/05 08:43:01;;;;;;;4.63;3.70;;;19.80;99.90;;;;;;5112664;28;20095;-72
2023/08/05 08:45:32;;;;;;;5.20;3.28;;;19.90;99.90;;;;;;5112078;28;20032;-72
2023/08/05 08:48:00;;;;;;;7.55;3.58;;;19.90;99.90;;;;;;5113195;28;20023;-72
2023/08/05 08:50:26;;;;;;;4.72;3.47;;;20.00;99.90;;;;;;5111534;28;20031;-73
2023/08/05 08:52:57;;;;;;;4.72;3.63;;;19.80;99.90;;;;;;5113245;28;20022;-73
2023/08/05 08:55:24;;;;;;;4.97;2.80;;;19.70;99.90;;;;;;5113007;28;20073;-72
2023/08/05 08:57:51;;;;;;;4.32;3.40;;;19.90;99.90;;;;;;5112758;28;20020;-72
2023/08/05 09:00:16;;;;;;;8.70;3.80;;;19.90;99.90;;;;;;5112895;28;20054;-72
2023/08/05 09:02:43;;;;;;;3.30;2.95;;;20.00;99.90;;;;;;5113227;28;20020;-72
2023/08/05 09:05:10;;;;;;;7.50;3.75;;;20.00;99.90;;;;;;5113048;28;20031;-72
2023/08/05 09:07:38;;;;;;;4.90;3.33;;;20.10;99.90;;;;;;5111411;28;20048;-73
2023/08/05 09:10:05;;;;;;;3.45;2.80;;;20.00;99.90;;;;;;5112072;28;20030;-72
2023/08/05 09:12:33;;;;;;;3.72;3.30;;;19.90;99.90;;;;;;5112468;28;20111;-72
2023/08/05 09:14:59;;;;;;;6.72;3.85;;;19.90;99.90;;;;;;5112455;28;20479;-72
2023/08/05 09:17:26;;;;;;;6.60;3.50;;;19.80;99.90;;;;;;5112649;28;20023;-72
2023/08/05 09:19:52;;;;;;;8.10;4.18;;;19.80;99.90;;;;;;5112661;28;20049;-72
2023/08/05 09:22:18;;;;;;;4.50;4.03;;;19.80;99.90;;;;;;5112978;28;20027;-73
2023/08/05 09:24:43;;;;;;;5.75;3.63;;;19.80;99.90;;;;;;5112313;27;20070;-72
2023/08/05 09:27:09;;;;;;;5.90;4.32;;;19.90;99.90;;;;;;5112927;28;20095;-72
2023/08/05 09:29:36;;;;;;;5.18;3.85;;;19.90;99.90;;;;;;5112130;28;20043;-72
2023/08/05 09:32:04;;;;;;;5.53;4.00;;;20.10;99.90;;;;;;5112802;28;20012;-71
2023/08/05 09:34:35;;;;;;;5.00;4.13;;;20.20;99.90;;;;;;5112671;28;20027;-73
2023/08/05 09:37:01;;;;;;;6.82;5.32;;;20.20;99.90;;;;;;5112588;27;20073;-73
2023/08/05 09:39:44;;;;;;;7.82;5.10;;;20.30;99.90;;;;;;5112300;28;20020;-72
2023/08/05 09:42:21;;;;;;;5.20;4.70;;;20.30;99.90;;;;;;5112799;28;20085;-72
2023/08/05 09:44:48;;;;;;;6.50;4.50;;;20.30;99.90;;;;;;5112503;28;20032;-72
2023/08/05 09:47:21;;;;;;;7.03;4.50;;;20.30;99.90;;;;;;5112569;28;20016;-72
2023/08/05 09:49:49;;;;;;;6.18;4.40;;;20.40;99.90;;;;;;5112568;28;20024;-70
2023/08/05 09:52:21;;;;;;;5.85;5.07;;;20.40;99.90;;;;;;5113090;28;20020;-71
2023/08/05 09:55:14;;;;;;;10.77;5.03;;;20.30;99.90;;;;;;5108205;28;20492;-70
2023/08/05 09:57:41;;;;;;;9.70;4.70;;;20.20;99.90;;;;;;5097639;28;20048;-70
2023/08/05 10:00:12;;;;;;;4.35;3.95;;;20.20;99.90;;;;;;5091743;28;20101;-73
2023/08/05 10:02:42;;;;;;;4.90;4.40;;;20.30;99.90;;;;;;5110091;28;20016;-70
2023/08/05 10:05:09;;;;;;;6.18;4.80;;;20.50;99.90;;;;;;5109269;28;20038;-72
2023/08/05 10:07:37;;;;;;;6.68;4.38;;;20.60;99.90;;;;;;5100736;28;20032;-70
2023/08/05 10:10:07;;;;;;;6.35;5.10;;;20.80;99.90;;;;;;5111926;28;20100;-70
2023/08/05 10:12:40;;;;;;;5.43;4.93;;;20.90;99.90;;;;;;5101798;28;20542;-70
2023/08/05 10:15:08;;;;;;;7.47;4.70;;;20.90;99.90;;;;;;5090592;28;20024;-70
2023/08/05 10:17:40;;;;;;;11.75;6.00;;;20.90;99.90;;;;;;5091674;28;20039;-70
2023/08/05 10:20:07;;;;;;;7.50;6.05;;;20.90;99.90;;;;;;5091489;28;20027;-70
2023/08/05 10:22:33;;;;;;;5.32;4.93;;;20.90;99.90;;;;;;5099673;28;20042;-72
2023/08/05 10:25:00;;;;;;;9.52;5.50;;;21.00;99.90;;;;;;5097848;28;20032;-72
2023/08/05 10:27:44;;;;;;;5.53;4.90;;;21.00;99.90;;;;;;5110043;28;20051;-71
2023/08/05 10:30:12;;;;;;;5.70;5.20;;;21.00;99.90;;;;;;5112163;28;20031;-69
2023/08/05 10:33:04;;;;;;;5.50;5.00;;;21.10;99.90;;;;;;5111902;28;20447;-68
2023/08/05 10:35:32;;;;;;;6.53;5.05;;;21.10;99.90;;;;;;5110022;28;20108;-70
2023/08/05 10:38:06;;;;;;;6.38;5.10;;;21.20;99.90;;;;;;5100440;28;20076;-69
2023/08/05 10:40:51;;;;;;;6.78;5.60;;;21.20;99.90;;;;;;5093117;28;20029;-70
2023/08/05 10:43:41;;;;;;;7.18;5.10;;;21.20;99.90;;;;;;5093623;28;20052;-71
2023/08/05 10:46:06;;;;;;;7.53;4.55;;;21.40;99.90;;;;;;5094737;28;20020;-70
2023/08/05 10:48:40;;;;;;;5.78;4.93;;;21.50;99.90;;;;;;5094896;28;20121;-70
2023/08/05 10:51:19;;;;;;;5.18;4.18;;;21.50;99.90;;;;;;5107453;28;20032;-71
2023/08/05 10:53:51;;;;;;;7.55;4.88;;;21.40;99.90;;;;;;5105043;28;20024;-70
2023/08/05 10:56:18;;;;;;;4.90;4.40;;;21.30;99.90;;;;;;5094971;28;20040;-70
2023/08/05 10:58:48;;;;;;;5.80;4.18;;;21.30;99.90;;;;;;5094685;28;20286;-70
2023/08/05 11:01:14;;;;;;;5.28;4.05;;;21.30;99.90;;;;;;5095254;28;20077;-70
2023/08/05 11:03:47;;;;;;;5.13;4.32;;;21.40;99.90;;;;;;5094810;28;20094;-71
2023/08/05 11:06:14;;;;;;;4.93;4.30;;;21.40;99.90;;;;;;5095009;28;20023;-70
2023/08/05 11:08:42;;;;;;;4.45;4.05;;;21.30;99.90;;;;;;5101281;28;20024;-70
2023/08/05 11:11:14;;;;;;;4.80;4.30;;;21.20;99.90;;;;;;5115820;28;20035;-70
2023/08/05 11:13:47;;;;;;;4.97;3.63;;;21.10;99.90;;;;;;5115294;27;20027;-71
2023/08/05 11:16:14;;;;;;;4.35;3.95;;;21.20;99.90;;;;;;5113765;28;20016;-70
2023/08/05 11:18:42;;;;;;;5.40;4.20;;;21.20;99.90;;;;;;5115078;28;20406;-70
2023/08/05 11:21:10;;;;;;;4.90;3.95;;;21.20;99.90;;;;;;5114964;28;20019;-70
2023/08/05 11:23:38;;;;;;;5.30;4.03;;;21.10;99.90;;;;;;5104303;28;20039;-70
2023/08/05 11:26:05;;;;;;;6.78;4.00;;;21.00;99.90;;;;;;5094805;28;20020;-70
2023/08/05 11:28:32;;;;;;;5.60;4.38;;;20.90;99.90;;;;;;5093059;28;20028;-69
2023/08/05 11:30:58;;;;;;;5.35;4.05;;;21.00;99.90;;;;;;5094182;28;20070;-70
2023/08/05 11:33:23;;;;;;;4.82;4.30;;;20.90;99.90;;;;;;5094366;28;20028;-69
2023/08/05 11:35:52;;;;;;;5.35;3.58;;;20.80;99.90;;;;;;5094217;28;20074;-69
2023/08/05 11:38:22;;;;;;;4.63;3.60;;;20.80;99.90;;;;;;5094426;28;20020;-69
2023/08/05 11:40:53;;;;;;;3.50;3.20;;;20.80;99.90;;;;;;5094188;28;20052;-68
2023/08/05 11:43:20;;;;;;;4.30;3.50;;;20.70;99.90;;;;;;5093700;28;20020;-69
2023/08/05 11:45:47;;;;;;;3.40;3.10;;;20.70;99.90;;;;;;5094414;28;20439;-69
2023/08/05 11:48:23;;;;;;;3.40;3.10;;;20.50;99.90;;;;;;5095769;28;20016;-69
2023/08/05 11:50:50;;;;;;;6.00;3.17;;;20.50;99.90;;;;;;5110908;28;20047;-69
2023/08/05 11:53:17;;;;;;;8.55;3.80;;;20.50;99.90;;;;;;5112817;28;20069;-70
2023/08/05 11:55:44;;;;;;;6.40;3.45;;;20.40;99.90;;;;;;5112488;28;20016;-69
2023/08/05 11:58:11;;;;;;;5.95;3.30;;;20.30;99.90;;;;;;5114212;28;20111;-69
2023/08/05 12:00:43;;;;;;;4.97;3.22;;;20.30;99.90;;;;;;5114240;28;20026;-70
2023/08/05 12:03:08;;;;;;;5.65;2.90;;;20.30;99.90;;;;;;5113358;28;20403;-70
2023/08/05 12:05:34;;;;;;;5.97;3.28;;;20.10;99.90;;;;;;5114228;28;20080;-70
2023/08/05 12:08:00;;;;;;;3.40;2.88;;;20.00;99.90;;;;;;5097493;28;20473;-70
2023/08/05 12:10:29;;;;;;;3.35;2.60;;;19.90;99.90;;;;;;5113753;28;20019;-70
2023/08/05 12:12:55;;;;;;;2.90;2.50;;;20.00;99.90;;;;;;5113982;27;20472;-69
2023/08/05 12:15:26;;;;;;;3.20;2.95;;;20.00;99.90;;;;;;5112717;28;20027;-71
2023/08/05 12:17:58;;;;;;;3.53;2.80;;;19.90;99.90;;;;;;5110497;28;20035;-70
2023/08/05 12:20:28;;;;;;;3.78;2.75;;;20.00;99.90;;;;;;5093347;28;20024;-70
2023/08/05 12:22:55;;;;;;;5.00;2.75;;;20.00;99.90;;;;;;5094236;28;20096;-70
2023/08/05 12:25:21;;;;;;;2.97;2.40;;;19.90;99.90;;;;;;5113541;27;20365;-70
2023/08/05 12:27:47;;;;;;;4.00;2.67;;;20.00;99.90;;;;;;5113670;28;20117;-70
2023/08/05 12:30:14;;;;;;;3.05;2.58;;;19.90;99.90;;;;;;5113366;28;20020;-70
2023/08/05 12:32:40;;;;;;;3.42;2.85;;;19.80;99.90;;;;;;5113290;28;20028;-70
2023/08/05 12:35:08;;;;;;;3.35;2.90;;;19.90;99.90;;;;;;5113465;28;20543;-70
2023/08/05 12:37:35;;;;;;;3.10;2.72;;;19.80;99.90;;;;;;5113270;28;20511;-72